Time;durP1;ratioP1;P1;durP2;ratioP2;P2;SDS_P1;SDS_P2;PMS_P1;PMS_P2;Temp;Humidity;BMP_temperature;BMP_pressure;BME280_temperature;BME280_humidity;BME280_pressure;Samples;Min_cycle;Max_cycle;Signal;HPM_P1;HPM_P2
2021/04/10 00:00:42;;;;;;;23.55;14.88;;;;;;;12.05;49.88;101172.75;4888765;28;119318;-70
2021/04/10 00:03:10;;;;;;;24.77;14.38;;;;;;;12.03;49.92;101176.41;4887585;28;123356;-70
2021/04/10 00:05:37;;;;;;;22.50;14.32;;;;;;;12.03;50.05;101171.09;4889083;28;124184;-70
2021/04/10 00:08:04;;;;;;;25.17;15.27;;;;;;;12.04;50.24;101165.72;4888149;28;120016;-69
2021/04/10 00:10:31;;;;;;;22.25;14.68;;;;;;;12.06;50.31;101152.38;4888544;28;119714;-70
2021/04/10 00:12:58;;;;;;;22.42;15.27;;;;;;;12.05;50.23;101150.63;4868778;28;123599;-70
2021/04/10 00:15:28;;;;;;;23.42;14.98;;;;;;;12.04;50.27;101159.56;4889005;28;124814;-70
2021/04/10 00:17:55;;;;;;;19.45;14.00;;;;;;;12.04;50.45;101164.88;4886745;28;119631;-70
2021/04/10 00:20:23;;;;;;;27.15;14.40;;;;;;;12.04;50.29;101178.13;4871139;28;119923;-70
2021/04/10 00:22:50;;;;;;;22.05;15.50;;;;;;;12.04;50.54;101180.78;4888643;28;123900;-70
2021/04/10 00:25:17;;;;;;;29.65;16.13;;;;;;;12.01;50.57;101180.91;4888904;28;124225;-70
2021/04/10 00:27:44;;;;;;;28.27;16.45;;;;;;;11.98;50.77;101181.94;4887071;28;119778;-71
2021/04/10 00:30:13;;;;;;;24.00;16.50;;;;;;;11.96;50.83;101172.28;4868754;28;117933;-70
2021/04/10 00:32:40;;;;;;;29.73;16.52;;;;;;;11.94;50.99;101168.84;4889845;28;125079;-70
2021/04/10 00:35:08;;;;;;;26.20;16.05;;;;;;;11.88;50.95;101168.19;4891674;28;124422;-70
2021/04/10 00:37:35;;;;;;;26.90;16.48;;;;;;;11.83;50.98;101171.97;4897439;28;119621;-70
2021/04/10 00:40:04;;;;;;;28.30;16.95;;;;;;;11.77;51.00;101175.78;4889265;28;118408;-70
2021/04/10 00:42:31;;;;;;;27.63;15.95;;;;;;;11.75;51.12;101185.56;4888923;28;123580;-70
2021/04/10 00:44:57;;;;;;;24.75;15.43;;;;;;;11.70;51.28;101176.97;4871923;28;122902;-70
2021/04/10 00:47:24;;;;;;;24.88;14.85;;;;;;;11.68;51.31;101181.47;4891419;28;119927;-70
2021/04/10 00:49:51;;;;;;;25.80;14.70;;;;;;;11.66;51.71;101186.00;4889270;28;118070;-70
2021/04/10 00:52:18;;;;;;;23.50;14.35;;;;;;;11.63;51.56;101180.81;4891484;28;124078;-70
2021/04/10 00:54:48;;;;;;;22.65;14.20;;;;;;;11.62;51.81;101173.78;4891800;28;124921;-70
2021/04/10 00:57:15;;;;;;;25.35;14.70;;;;;;;11.62;51.56;101158.75;4889458;28;119313;-70
2021/04/10 00:59:42;;;;;;;25.35;13.25;;;;;;;11.58;51.47;101166.88;4873718;28;118542;-70
2021/04/10 01:02:09;;;;;;;24.92;13.85;;;;;;;11.55;51.57;101156.44;4887286;28;123727;-70
2021/04/10 01:04:36;;;;;;;23.75;14.07;;;;;;;11.49;51.85;101158.41;4891509;28;124403;-70
2021/04/10 01:07:03;;;;;;;24.90;13.75;;;;;;;11.46;51.71;101153.22;4888977;28;119670;-70
2021/04/10 01:09:31;;;;;;;24.42;13.00;;;;;;;11.42;51.82;101156.09;4884156;28;120937;-70
2021/04/10 01:12:15;;;;;;;21.90;12.77;;;;;;;11.35;51.62;101155.50;4889852;28;124334;-70
2021/04/10 01:14:50;;;;;;;22.55;12.93;;;;;;;11.33;52.02;101157.34;4872077;28;123547;-70
2021/04/10 01:17:27;;;;;;;21.98;12.95;;;;;;;11.30;51.96;101160.13;4890294;28;120071;-70
2021/04/10 01:20:16;;;;;;;20.92;12.45;;;;;;;11.28;52.26;101161.97;4886140;28;118257;-70
2021/04/10 01:22:44;;;;;;;20.30;12.55;;;;;;;11.27;52.08;101163.78;4870614;28;123678;-70
2021/04/10 01:25:22;;;;;;;26.50;12.75;;;;;;;11.25;52.46;101159.47;4890263;28;122992;-70
2021/04/10 01:28:00;;;;;;;23.13;12.73;;;;;;;11.23;52.37;101156.03;4890274;28;118810;-70
2021/04/10 01:30:32;;;;;;;18.83;11.95;;;;;;;11.21;52.41;101168.50;4889695;28;117949;-70
2021/04/10 01:33:06;;;;;;;25.10;12.18;;;;;;;11.21;52.51;101164.03;4888249;28;124838;-70
2021/04/10 01:35:36;;;;;;;23.40;11.85;;;;;;;11.20;52.36;101172.06;4887555;28;123217;-70
2021/04/10 01:38:08;;;;;;;22.42;12.40;;;;;;;11.18;52.78;101164.16;4888488;28;120640;-70
2021/04/10 01:40:36;;;;;;;21.58;11.43;;;;;;;11.17;52.50;101161.56;4867143;28;118275;-70
2021/04/10 01:43:05;;;;;;;22.15;12.00;;;;;;;11.13;52.72;101154.69;4873787;28;124495;-70
2021/04/10 01:45:34;;;;;;;22.38;11.20;;;;;;;11.08;52.64;101153.09;4887874;28;123736;-70
2021/04/10 01:48:04;;;;;;;20.25;11.25;;;;;;;11.06;52.75;101154.94;4886130;28;118435;-70
2021/04/10 01:50:35;;;;;;;24.05;11.60;;;;;;;11.02;52.99;101169.25;4871925;28;118395;-70
2021/04/10 01:53:04;;;;;;;22.20;11.00;;;;;;;10.99;52.80;101173.81;4873994;28;124807;-70
2021/04/10 01:55:32;;;;;;;22.02;9.43;;;;;;;10.96;53.29;101173.94;4886423;28;123158;-69
2021/04/10 01:58:01;;;;;;;22.00;10.25;;;;;;;10.95;53.13;101182.84;4888461;28;119308;-70
2021/04/10 02:00:35;;;;;;;21.05;8.95;;;;;;;10.92;52.77;101173.19;4873757;28;119675;-70
2021/04/10 02:03:04;;;;;;;20.92;9.00;;;;;;;10.90;52.89;101180.34;4888361;28;124410;-70
2021/04/10 02:05:34;;;;;;;20.95;9.40;;;;;;;10.88;53.04;101182.22;4871080;28;122853;-70
2021/04/10 02:08:18;;;;;;;24.30;8.70;;;;;;;10.86;53.23;101184.06;4886011;28;118085;-70
2021/04/10 02:10:48;;;;;;;16.85;7.57;;;;;;;10.87;52.85;101196.41;4889663;28;118324;-70
2021/04/10 02:13:35;;;;;;;14.80;7.47;;;;;;;10.86;52.98;101189.38;4891212;28;124719;-70
2021/04/10 02:16:02;;;;;;;17.90;7.40;;;;;;;10.84;53.08;101191.22;4854319;28;123497;-70
2021/04/10 02:18:35;;;;;;;13.77;6.55;;;;;;;10.79;52.73;101187.88;4868564;28;118967;-70
2021/04/10 02:21:09;;;;;;;13.23;6.60;;;;;;;10.75;52.65;101186.28;4889112;28;118159;-70
2021/04/10 02:23:43;;;;;;;17.65;6.60;;;;;;;10.72;53.04;101197.88;4888535;28;123311;-70
2021/04/10 02:26:22;;;;;;;14.18;6.18;;;;;;;10.69;52.80;101182.94;4872400;28;123998;-70
2021/04/10 02:28:49;;;;;;;16.65;6.35;;;;;;;10.68;52.83;101186.53;4889601;28;119108;-70
2021/04/10 02:31:47;;;;;;;12.05;6.07;;;;;;;10.66;52.92;101187.50;4888729;28;118490;-70
2021/04/10 02:34:24;;;;;;;13.65;6.05;;;;;;;10.62;52.72;101181.47;4887515;28;124823;-70
2021/04/10 02:36:57;;;;;;;12.90;6.03;;;;;;;10.60;53.11;101172.72;4870999;28;123158;-70
2021/04/10 02:39:27;;;;;;;13.57;5.88;;;;;;;10.56;53.12;101181.72;4890110;28;119227;-70
2021/04/10 02:42:00;;;;;;;12.63;5.85;;;;;;;10.53;53.17;101176.56;4886592;28;119213;-70
2021/04/10 02:44:34;;;;;;;14.70;5.88;;;;;;;10.50;53.11;101179.31;4887527;28;123182;-70
2021/04/10 02:47:06;;;;;;;18.43;5.87;;;;;;;10.49;52.94;101185.53;4887839;28;122928;-70
2021/04/10 02:49:38;;;;;;;18.77;5.80;;;;;;;10.46;53.17;101191.81;4886793;28;120616;-70
2021/04/10 02:52:07;;;;;;;13.27;5.60;;;;;;;10.42;52.66;101189.34;4856771;28;119206;-70
2021/04/10 02:54:43;;;;;;;13.48;4.90;;;;;;;10.39;53.06;101184.16;4888077;28;123368;-70
2021/04/10 02:57:11;;;;;;;;;;;;;;;10.36;52.38;101190.47;4888022;28;123503;-70
2021/04/10 02:59:43;;;;;;;14.15;5.60;;;;;;;10.36;52.93;101178.97;4888163;28;118719;-70
2021/04/10 03:02:13;;;;;;;14.00;5.43;;;;;;;10.33;53.06;101186.13;4887806;28;118282;-70
2021/04/10 03:04:45;;;;;;;14.57;5.90;;;;;;;10.32;52.85;101189.72;4889752;28;124380;-70
2021/04/10 03:07:13;;;;;;;14.43;6.32;;;;;;;10.28;52.91;101182.78;4888058;28;124357;-70
2021/04/10 03:09:43;;;;;;;14.60;5.97;;;;;;;10.27;53.27;101188.97;4870891;28;118407;-70
2021/04/10 03:12:16;;;;;;;16.25;6.35;;;;;;;10.26;53.16;101195.19;4889532;28;119016;-70
2021/04/10 03:14:44;;;;;;;16.85;5.85;;;;;;;10.26;53.17;101191.69;4882641;28;124356;-70
2021/04/10 03:17:15;;;;;;;14.65;6.03;;;;;;;10.25;53.40;101188.19;4883774;28;123217;-70
2021/04/10 03:19:45;;;;;;;12.32;5.63;;;;;;;10.25;53.21;101193.47;4888093;28;118355;-70
2021/04/10 03:22:15;;;;;;;19.58;6.45;;;;;;;10.24;53.19;101186.44;4869592;28;119026;-70
2021/04/10 03:24:44;;;;;;;14.93;6.30;;;;;;;10.24;53.19;101202.31;4887565;28;124708;-70
2021/04/10 03:27:15;;;;;;;10.77;5.68;;;;;;;10.22;52.95;101204.16;4857688;28;123650;-70
2021/04/10 03:29:42;;;;;;;16.33;6.18;;;;;;;10.21;52.99;101206.88;4887645;28;118877;-70
2021/04/10 03:32:27;;;;;;;15.80;6.30;;;;;;;10.20;53.26;101206.00;4888904;28;119443;-70
2021/04/10 03:34:55;;;;;;;13.98;6.45;;;;;;;10.19;53.25;101209.59;4888161;28;124019;-70
2021/04/10 03:37:23;;;;;;;17.13;6.88;;;;;;;10.18;52.95;101212.28;4869016;28;123352;-70
2021/04/10 03:39:49;;;;;;;14.85;6.43;;;;;;;10.16;53.02;101198.25;4884150;28;119392;-70
2021/04/10 03:42:21;;;;;;;15.63;6.93;;;;;;;10.14;53.48;101200.97;4887757;28;120040;-70
2021/04/10 03:44:49;;;;;;;15.55;6.53;;;;;;;10.14;53.21;101206.25;4856000;28;123696;-70
2021/04/10 03:47:35;;;;;;;18.80;6.85;;;;;;;10.12;53.06;101208.09;4890710;28;124533;-70
2021/04/10 03:50:03;;;;;;;16.35;6.53;;;;;;;10.12;53.48;101202.81;4886974;28;118423;-70
2021/04/10 03:52:30;;;;;;;17.48;6.20;;;;;;;10.11;53.50;101211.66;4885546;28;118290;-70
2021/04/10 03:54:57;;;;;;;14.13;6.72;;;;;;;10.10;53.44;101205.50;4873670;28;123239;-70
2021/04/10 03:57:24;;;;;;;12.77;6.60;;;;;;;10.11;53.33;101216.94;4887201;28;123757;-70
2021/04/10 03:59:50;;;;;;;21.17;6.50;;;;;;;10.10;53.44;101209.94;4871764;28;119331;-70
2021/04/10 04:02:23;;;;;;;15.27;6.97;;;;;;;10.10;53.52;101215.22;4884300;28;118258;-70
2021/04/10 04:04:50;;;;;;;18.80;6.68;;;;;;;10.08;53.58;101217.06;4886879;28;123176;-70
2021/04/10 04:07:17;;;;;;;15.95;6.35;;;;;;;10.07;53.51;101220.63;4888876;28;123691;-70
2021/04/10 04:09:44;;;;;;;18.15;6.78;;;;;;;10.08;53.43;101227.66;4891419;28;119535;-70
2021/04/10 04:12:11;;;;;;;16.35;6.20;;;;;;;10.09;53.66;101224.06;4890951;28;117883;-70
2021/04/10 04:14:38;;;;;;;16.20;6.22;;;;;;;10.08;53.37;101227.66;4887458;28;122901;-70
2021/04/10 04:17:06;;;;;;;15.55;6.50;;;;;;;10.07;53.78;101236.50;4892224;28;124460;-70
2021/04/10 04:19:33;;;;;;;14.30;6.53;;;;;;;10.08;53.61;101232.94;4869749;28;118570;-70
2021/04/10 04:22:03;;;;;;;12.85;6.20;;;;;;;10.09;53.89;101234.66;4891176;28;118943;-70
2021/04/10 04:24:30;;;;;;;16.35;6.72;;;;;;;10.08;53.46;101238.25;4891503;28;124272;-70
2021/04/10 04:26:59;;;;;;;15.63;5.80;;;;;;;10.09;53.54;101239.94;4892083;28;123851;-70
2021/04/10 04:29:26;;;;;;;14.07;5.72;;;;;;;10.10;53.50;101236.41;4890504;28;120090;-71
2021/04/10 04:31:52;;;;;;;11.75;5.78;;;;;;;10.11;53.78;101232.81;4891780;28;120228;-70
2021/04/10 04:34:19;;;;;;;13.20;6.38;;;;;;;10.11;53.82;101235.47;4890143;28;122911;-70
2021/04/10 04:36:46;;;;;;;10.90;5.88;;;;;;;10.09;53.43;101240.81;4891794;28;123807;-70
2021/04/10 04:39:12;;;;;;;15.35;6.50;;;;;;;10.08;53.71;101243.53;4871564;28;119981;-70
2021/04/10 04:41:39;;;;;;;15.95;7.03;;;;;;;10.08;54.10;101246.19;4873915;28;119612;-70
2021/04/10 04:44:06;;;;;;;12.32;6.05;;;;;;;10.09;54.10;101251.41;4891416;28;124829;-70
2021/04/10 04:46:32;;;;;;;11.95;6.45;;;;;;;10.09;53.79;101253.19;4889397;28;123575;-70
2021/04/10 04:48:59;;;;;;;15.60;6.13;;;;;;;10.10;53.91;101253.13;4891401;28;118467;-70
2021/04/10 04:51:26;;;;;;;13.38;6.10;;;;;;;10.10;54.04;101241.69;4888261;28;118976;-70
2021/04/10 04:53:53;;;;;;;18.05;6.78;;;;;;;10.08;53.81;101254.13;4884814;28;123314;-71
2021/04/10 04:56:19;;;;;;;17.95;6.93;;;;;;;10.06;53.82;101255.97;4883819;28;123110;-70
2021/04/10 04:58:46;;;;;;;14.32;6.38;;;;;;;10.05;53.99;101256.88;4889985;28;120117;-70
2021/04/10 05:01:12;;;;;;;15.05;6.65;;;;;;;10.04;54.33;101252.47;4891114;28;118077;-70
2021/04/10 05:03:39;;;;;;;11.00;6.15;;;;;;;10.05;54.24;101256.88;4892033;28;124206;-70
2021/04/10 05:06:05;;;;;;;16.23;7.00;;;;;;;10.03;54.07;101261.34;4891214;28;123787;-70
2021/04/10 05:08:32;;;;;;;13.05;7.25;;;;;;;10.04;54.06;101268.34;4890675;28;121996;-70
2021/04/10 05:10:59;;;;;;;15.88;7.60;;;;;;;10.02;54.19;101270.19;4891491;28;119875;-70
2021/04/10 05:13:26;;;;;;;16.80;7.40;;;;;;;10.00;54.47;101272.03;4889695;28;124065;-70
2021/04/10 05:15:55;;;;;;;15.98;7.60;;;;;;;9.99;54.34;101275.63;4887060;28;122779;-70
2021/04/10 05:18:22;;;;;;;20.90;7.22;;;;;;;9.97;54.48;101277.47;4873130;28;118954;-70
2021/04/10 05:20:48;;;;;;;16.83;7.75;;;;;;;9.92;54.21;101270.53;4894188;28;119721;-70
2021/04/10 05:23:20;;;;;;;14.80;7.47;;;;;;;9.91;54.33;101282.03;4897262;28;124370;-70
2021/04/10 05:25:47;;;;;;;18.67;8.50;;;;;;;9.90;54.81;101272.38;4890776;28;123127;-70
2021/04/10 05:28:19;;;;;;;18.45;8.48;;;;;;;9.93;54.53;101272.25;4889558;28;119103;-70
2021/04/10 05:30:46;;;;;;;16.88;8.15;;;;;;;9.96;54.61;101275.72;4896500;28;119336;-70
2021/04/10 05:33:13;;;;;;;14.20;8.27;;;;;;;9.94;54.66;101271.38;4891673;28;127921;-71
2021/04/10 05:35:40;;;;;;;14.75;7.50;;;;;;;9.93;54.48;101276.72;4872244;28;123930;-71
2021/04/10 05:38:07;;;;;;;21.85;8.85;;;;;;;9.92;54.88;101275.81;4890520;28;119232;-71
2021/04/10 05:40:33;;;;;;;16.70;8.15;;;;;;;9.93;54.58;101277.56;4884386;28;118357;-71
2021/04/10 05:43:00;;;;;;;17.65;7.95;;;;;;;9.91;54.50;101271.47;4889131;28;124741;-70
2021/04/10 05:45:27;;;;;;;16.77;8.63;;;;;;;9.89;54.93;101275.94;4891309;28;124098;-71
2021/04/10 05:47:53;;;;;;;19.30;8.52;;;;;;;9.88;54.74;101284.78;4890460;28;119567;-71
2021/04/10 05:50:20;;;;;;;19.27;8.45;;;;;;;9.87;54.92;101287.47;4888869;28;119217;-71
2021/04/10 05:52:49;;;;;;;18.38;7.97;;;;;;;9.88;55.04;101290.06;4873403;28;123834;-70
2021/04/10 05:55:16;;;;;;;17.02;8.20;;;;;;;9.89;54.84;101297.13;4890644;28;123504;-71
2021/04/10 05:57:42;;;;;;;16.92;8.05;;;;;;;9.90;55.32;101293.53;4857238;28;118327;-71
2021/04/10 06:00:09;;;;;;;17.95;8.63;;;;;;;9.92;54.88;101296.97;4887919;28;119183;-70
2021/04/10 06:02:39;;;;;;;20.00;8.55;;;;;;;9.93;55.34;101298.72;4890041;28;124997;-71
2021/04/10 06:05:06;;;;;;;17.00;7.95;;;;;;;9.97;55.11;101303.91;4888874;28;124438;-70
2021/04/10 06:07:33;;;;;;;15.95;7.85;;;;;;;9.98;55.33;101310.94;4890406;28;121607;-71
2021/04/10 06:09:59;;;;;;;17.50;7.80;;;;;;;9.99;55.13;101302.09;4886333;28;119863;-70
2021/04/10 06:12:26;;;;;;;18.38;7.93;;;;;;;10.02;55.49;101307.25;4890405;28;124492;-71
2021/04/10 06:14:53;;;;;;;20.95;7.68;;;;;;;10.04;55.08;101305.41;4890453;28;126469;-71
2021/04/10 06:17:19;;;;;;;19.50;7.65;;;;;;;10.04;55.17;101305.41;4890719;28;119721;-71
2021/04/10 06:19:46;;;;;;;16.45;7.90;;;;;;;10.05;55.46;101308.00;4885613;28;118955;-71
2021/04/10 06:22:32;;;;;;;18.33;7.20;;;;;;;10.06;55.08;101311.53;4889775;28;124364;-69
2021/04/10 06:24:59;;;;;;;17.80;7.47;;;;;;;10.07;55.07;101310.59;4890761;28;124000;-69
2021/04/10 06:27:25;;;;;;;19.52;7.80;;;;;;;10.09;55.21;101308.75;4889269;28;119143;-69
2021/04/10 06:29:52;;;;;;;18.75;7.90;;;;;;;10.09;55.12;101311.41;4889053;28;119216;-69
2021/04/10 06:32:18;;;;;;;15.68;7.68;;;;;;;10.09;55.20;101303.47;4889532;28;124025;-69
2021/04/10 06:34:45;;;;;;;16.25;8.15;;;;;;;10.10;55.19;101313.16;4888496;28;124172;-69
2021/04/10 06:37:11;;;;;;;16.50;7.45;;;;;;;10.12;55.20;101313.97;4888334;28;118320;-69
2021/04/10 06:39:38;;;;;;;12.70;7.70;;;;;;;10.14;55.13;101318.28;4870149;28;118785;-69
2021/04/10 06:42:07;;;;;;;18.88;8.30;;;;;;;10.18;55.54;101320.81;4888457;28;122897;-69
2021/04/10 06:44:34;;;;;;;13.80;7.78;;;;;;;10.21;55.15;101318.94;4887272;28;123799;-69
2021/04/10 06:47:02;;;;;;;19.75;7.40;;;;;;;10.24;55.13;101308.22;4888334;28;120011;-69
2021/04/10 06:49:31;;;;;;;17.33;7.75;;;;;;;10.27;55.16;101318.69;4886489;28;117849;-69
2021/04/10 06:51:59;;;;;;;17.08;7.55;;;;;;;10.30;54.92;101312.41;4890006;28;123930;-69
2021/04/10 06:54:30;;;;;;;15.70;7.65;;;;;;;10.30;54.75;101310.69;4872653;28;124817;-69
2021/04/10 06:57:10;;;;;;;16.38;7.13;;;;;;;10.29;54.86;101311.56;4872735;28;118584;-69
2021/04/10 07:00:01;;;;;;;16.00;7.25;;;;;;;10.28;54.87;101323.09;4885007;28;119837;-69
2021/04/10 07:02:30;;;;;;;15.82;7.38;;;;;;;10.26;54.61;101329.34;4867478;28;123727;-69
2021/04/10 07:04:58;;;;;;;17.80;7.78;;;;;;;10.25;54.57;101336.44;4885393;28;123921;-69
2021/04/10 07:07:25;;;;;;;17.25;7.60;;;;;;;10.24;54.61;101339.13;4889804;28;119587;-69
2021/04/10 07:09:52;;;;;;;18.13;7.38;;;;;;;10.24;54.84;101337.31;4888932;28;118764;-69
2021/04/10 07:12:19;;;;;;;12.85;6.88;;;;;;;10.25;54.85;101336.44;4884956;28;124855;-69
2021/04/10 07:14:46;;;;;;;14.50;7.57;;;;;;;10.27;54.87;101334.59;4889868;28;124118;-69
2021/04/10 07:17:13;;;;;;;16.30;7.50;;;;;;;10.29;54.88;101338.03;4890211;28;119256;-69
2021/04/10 07:19:40;;;;;;;15.85;6.95;;;;;;;10.29;54.56;101332.75;4891592;28;118678;-69
2021/04/10 07:22:12;;;;;;;13.23;7.40;;;;;;;10.28;54.60;101333.69;4888977;28;123816;-69
2021/04/10 07:24:43;;;;;;;20.15;7.85;;;;;;;10.30;54.71;101333.59;4888641;28;123983;-69
2021/04/10 07:27:14;;;;;;;15.38;7.05;;;;;;;10.30;54.94;101329.22;4888086;28;118102;-69
2021/04/10 07:29:42;;;;;;;14.27;6.90;;;;;;;10.32;54.53;101337.09;4872536;28;118969;-69
2021/04/10 07:32:28;;;;;;;16.73;7.20;;;;;;;10.35;54.85;101341.44;4886480;28;124230;-69
2021/04/10 07:35:07;;;;;;;13.45;6.80;;;;;;;10.37;54.72;101339.59;4884086;28;124260;-69
2021/04/10 07:37:41;;;;;;;13.90;7.10;;;;;;;10.41;54.75;101335.91;4882741;28;120244;-69
2021/04/10 07:40:13;;;;;;;17.65;7.07;;;;;;;10.45;54.71;101343.69;4880706;28;118274;-69
2021/04/10 07:42:44;;;;;;;17.02;6.90;;;;;;;10.47;54.43;101340.97;4878971;28;124341;-69
2021/04/10 07:45:22;;;;;;;14.40;6.80;;;;;;;10.48;54.54;101348.84;4891271;28;124020;-69
2021/04/10 07:47:51;;;;;;;13.23;6.63;;;;;;;10.50;54.68;101347.00;4888257;28;120366;-70
2021/04/10 07:50:22;;;;;;;20.98;7.28;;;;;;;10.56;54.70;101356.50;4871614;28;119029;-69
2021/04/10 07:52:50;;;;;;;15.40;6.35;;;;;;;10.58;54.39;101354.69;4890439;28;123697;-70
2021/04/10 07:55:54;;;;;;;15.50;6.97;;;;;;;10.55;54.04;101352.16;4890690;28;124753;-70
2021/04/10 07:58:30;;;;;;;14.27;6.68;;;;;;;10.56;54.33;101351.22;4848914;29;119617;-71
2021/04/10 08:00:59;;;;;;;16.20;6.93;;;;;;;10.56;54.12;101356.50;4869789;28;118536;-70
2021/04/10 08:03:37;;;;;;;16.02;6.72;;;;;;;10.55;54.35;101349.50;4890480;28;123777;-70
2021/04/10 08:06:08;;;;;;;15.32;6.60;;;;;;;10.55;54.20;101349.50;4877921;28;122974;-70
2021/04/10 08:08:44;;;;;;;14.43;7.15;;;;;;;10.55;54.49;101338.91;4892319;28;120130;-70
2021/04/10 08:11:11;;;;;;;18.25;7.45;;;;;;;10.56;54.40;101345.06;4891442;28;118782;-70
2021/04/10 08:13:51;;;;;;;21.23;7.03;;;;;;;10.56;54.38;101345.91;4890458;28;123061;-70
2021/04/10 08:16:20;;;;;;;17.55;7.13;;;;;;;10.57;54.09;101352.06;4887314;28;124518;-70
2021/04/10 08:18:50;;;;;;;16.15;6.45;;;;;;;10.58;54.05;101359.13;4868744;28;119977;-70
2021/04/10 08:21:19;;;;;;;17.17;6.30;;;;;;;10.59;53.95;101356.41;4888962;28;119339;-70
2021/04/10 08:23:46;;;;;;;12.93;6.97;;;;;;;10.59;54.31;101356.41;4888996;28;124305;-70
2021/04/10 08:26:16;;;;;;;15.98;7.00;;;;;;;10.61;54.42;101359.88;4891500;28;124292;-70
2021/04/10 08:28:43;;;;;;;17.00;6.70;;;;;;;10.62;54.31;101350.97;4887289;28;119225;-70
2021/04/10 08:31:10;;;;;;;11.98;6.75;;;;;;;10.63;54.01;101362.47;4894344;28;119240;-70
2021/04/10 08:33:37;;;;;;;14.60;7.00;;;;;;;10.63;54.49;101358.03;4892015;28;124342;-70
2021/04/10 08:36:07;;;;;;;18.27;7.18;;;;;;;10.64;54.32;101354.47;4891985;28;124141;-70
2021/04/10 08:38:35;;;;;;;13.52;7.00;;;;;;;10.64;54.21;101351.81;4888493;28;121191;-70
2021/04/10 08:41:04;;;;;;;19.70;7.53;;;;;;;10.64;54.12;101359.78;4873856;28;118853;-70
2021/04/10 08:43:33;;;;;;;16.70;7.25;;;;;;;10.66;54.27;101352.63;4890256;28;122743;-70
2021/04/10 08:46:00;;;;;;;18.77;7.72;;;;;;;10.67;54.55;101348.19;4869789;28;124349;-70
2021/04/10 08:48:28;;;;;;;16.05;7.45;;;;;;;10.68;54.31;101345.47;4868384;28;119022;-70
2021/04/10 08:50:59;;;;;;;18.20;7.57;;;;;;;10.71;54.90;101350.66;4888603;28;118945;-70
2021/04/10 08:53:28;;;;;;;18.05;7.65;;;;;;;10.74;54.21;101354.09;4889625;28;123879;-70
2021/04/10 08:55:56;;;;;;;15.77;7.18;;;;;;;10.75;54.73;101351.41;4891184;28;124284;-70
2021/04/10 08:58:30;;;;;;;16.73;7.35;;;;;;;10.77;54.67;101354.84;4870499;28;119201;-70
2021/04/10 09:00:58;;;;;;;18.52;7.10;;;;;;;10.78;54.56;101350.44;4887821;28;119691;-70
2021/04/10 09:03:47;;;;;;;18.13;7.25;;;;;;;10.78;54.61;101350.44;4890558;28;124389;-71
2021/04/10 09:06:37;;;;;;;14.30;6.97;;;;;;;10.78;54.48;101350.44;4888118;28;124429;-70
2021/04/10 09:09:25;;;;;;;17.90;7.97;;;;;;;10.76;54.62;101341.69;4878419;28;119544;-70
2021/04/10 09:12:19;;;;;;;16.08;7.28;;;;;;;10.76;54.57;101347.00;4889737;28;118944;-70
2021/04/10 09:14:48;;;;;;;18.52;7.93;;;;;;;10.76;54.58;101360.22;4887319;28;123502;-70
2021/04/10 09:17:15;;;;;;;15.73;7.53;;;;;;;10.74;54.26;101354.09;4871252;28;124678;-71
2021/04/10 09:19:42;;;;;;;14.05;8.18;;;;;;;10.71;54.34;101355.94;4872960;28;121571;-70
2021/04/10 09:22:16;;;;;;;17.58;7.50;;;;;;;10.71;54.44;101355.09;4891581;28;118596;-70
2021/04/10 09:24:49;;;;;;;15.10;7.28;;;;;;;10.71;54.68;101366.53;4866904;28;124787;-70
2021/04/10 09:27:21;;;;;;;15.77;7.28;;;;;;;10.69;54.75;101355.13;4867690;28;123914;-70
2021/04/10 09:29:55;;;;;;;17.38;8.57;;;;;;;10.68;54.44;101366.69;4884778;28;120310;-70
2021/04/10 09:32:29;;;;;;;18.30;7.90;;;;;;;10.67;54.72;101358.78;4884646;28;119914;-70
2021/04/10 09:34:58;;;;;;;18.83;8.48;;;;;;;10.67;54.67;101364.94;4889475;28;124023;-70
2021/04/10 09:37:25;;;;;;;15.50;8.43;;;;;;;10.68;54.84;101356.06;4891131;28;123631;-70
2021/04/10 09:39:52;;;;;;;16.30;8.18;;;;;;;10.68;55.25;101356.06;4887757;28;118901;-70
2021/04/10 09:45:10;;;;;;;19.77;9.27;;;;;;;10.71;55.05;101355.94;4889711;28;123241;-70
2021/04/10 09:47:52;;;;;;;18.23;8.77;;;;;;;10.71;55.29;101361.25;4891340;28;123620;-70
2021/04/10 09:50:18;;;;;;;17.27;8.73;;;;;;;10.75;55.02;101361.13;4873509;28;118130;-70
2021/04/10 09:52:53;;;;;;;23.15;8.80;;;;;;;10.76;54.99;101358.44;4889260;28;119769;-70
2021/04/10 09:55:20;;;;;;;17.33;9.03;;;;;;;10.78;55.15;101361.03;4889270;28;124247;-70
2021/04/10 09:57:54;;;;;;;19.10;9.32;;;;;;;10.78;55.19;101358.38;4872871;28;124036;-70
2021/04/10 10:00:32;;;;;;;21.75;9.27;;;;;;;10.77;55.21;101359.28;4890610;28;119277;-70
2021/04/10 10:03:01;;;;;;;13.95;8.77;;;;;;;10.76;55.58;101357.59;4891112;28;119495;-70
2021/04/10 10:05:35;;;;;;;18.38;9.32;;;;;;;10.75;55.53;101358.50;4890060;28;124088;-70
2021/04/10 10:08:05;;;;;;;17.05;9.88;;;;;;;10.74;55.37;101354.97;4880959;28;123764;-70
2021/04/10 10:10:34;;;;;;;21.52;9.30;;;;;;;10.73;55.71;101352.38;4888817;28;119475;-70
2021/04/10 10:13:10;;;;;;;21.58;9.40;;;;;;;10.69;55.60;101347.19;4878237;28;118362;-70
2021/04/10 10:15:37;;;;;;;19.20;9.90;;;;;;;10.67;55.85;101354.34;4888095;28;122995;-70
2021/04/10 10:18:26;;;;;;;17.27;9.45;;;;;;;10.65;55.69;101350.88;4887526;28;122786;-70
2021/04/10 10:20:56;;;;;;;19.48;10.25;;;;;;;10.67;56.03;101349.03;4890097;28;119843;-70
2021/04/10 10:23:31;;;;;;;18.50;10.45;;;;;;;10.67;55.93;101351.69;4886319;28;120679;-70
2021/04/10 10:26:25;;;;;;;19.70;10.37;;;;;;;10.65;56.06;101356.19;4872801;28;123354;-69
2021/04/10 10:29:02;;;;;;;17.95;9.77;;;;;;;10.64;56.08;101348.28;4880813;28;124218;-70
2021/04/10 10:31:40;;;;;;;17.00;10.10;;;;;;;10.62;56.24;101340.38;4889997;28;119677;-70
2021/04/10 10:34:09;;;;;;;17.95;10.38;;;;;;;10.63;56.32;101341.28;4890269;28;119525;-69
2021/04/10 10:36:41;;;;;;;19.85;10.38;;;;;;;10.65;56.49;101335.00;4889834;28;124160;-69
2021/04/10 10:39:22;;;;;;;19.98;10.07;;;;;;;10.68;56.65;101334.00;4889411;28;124288;-69
2021/04/10 10:41:49;;;;;;;18.60;10.02;;;;;;;10.71;56.86;101332.09;4890667;28;119282;-69
2021/04/10 10:44:18;;;;;;;18.73;10.23;;;;;;;10.75;56.82;101329.34;4890423;28;119143;-69
2021/04/10 10:46:45;;;;;;;23.30;11.05;;;;;;;10.76;56.68;101331.09;4889643;28;124106;-70
2021/04/10 10:49:12;;;;;;;22.90;10.50;;;;;;;10.78;56.89;101321.28;4889191;28;123870;-70
2021/04/10 10:51:42;;;;;;;25.33;11.30;;;;;;;10.78;57.00;101316.00;4872373;28;118495;-69
2021/04/10 10:54:09;;;;;;;21.15;10.43;;;;;;;10.78;56.92;101316.00;4888739;28;118793;-69
2021/04/10 10:56:36;;;;;;;19.92;10.80;;;;;;;10.78;56.88;101313.34;4889920;28;123858;-70
2021/04/10 10:59:06;;;;;;;21.00;10.63;;;;;;;10.78;57.00;101308.03;4888195;28;124559;-70
2021/04/10 11:01:37;;;;;;;18.50;10.30;;;;;;;10.78;57.24;101300.09;4888246;28;120345;-69
2021/04/10 11:04:06;;;;;;;23.05;10.80;;;;;;;10.79;57.13;101299.16;4871353;28;117863;-70
2021/04/10 11:06:39;;;;;;;21.45;10.15;;;;;;;10.78;57.11;101297.44;4886745;28;124544;-69
2021/04/10 11:09:10;;;;;;;23.63;11.20;;;;;;;10.78;57.03;101289.50;4869854;28;122720;-70
2021/04/10 11:11:40;;;;;;;20.55;10.63;;;;;;;10.77;57.30;101285.09;4887320;28;119708;-69
2021/04/10 11:14:08;;;;;;;19.00;11.13;;;;;;;10.76;57.62;101288.69;4884708;28;119040;-70
2021/04/10 11:16:42;;;;;;;20.55;9.90;;;;;;;10.77;57.53;101279.81;4871204;28;123821;-69
2021/04/10 11:19:09;;;;;;;24.30;11.27;;;;;;;10.77;57.13;101279.81;4872539;28;124636;-69
2021/04/10 11:21:36;;;;;;;21.98;11.43;;;;;;;10.74;57.51;101274.63;4882701;28;119748;-69
2021/04/10 11:24:13;;;;;;;23.38;11.18;;;;;;;10.71;57.58;101276.47;4880827;28;118873;-69